Time;durP1;ratioP1;P1;durP2;ratioP2;P2;SDS_P1;SDS_P2;PMS_P1;PMS_P2;Temp;Humidity;BMP_temperature;BMP_pressure;BME280_temperature;BME280_humidity;BME280_pressure;Samples;Min_cycle;Max_cycle;Signal;HPM_P1;HPM_P2
2021/12/30 00:00:18;;;;;;;45.08;23.23;;;;;;;4.96;100.00;100063.84;5046001;28;20057;-63
2021/12/30 00:02:45;;;;;;;47.78;24.13;;;;;;;4.95;100.00;100070.78;5049291;28;20053;-62
2021/12/30 00:05:14;;;;;;;44.60;22.67;;;;;;;4.98;100.00;100062.00;5043362;28;20497;-63
2021/12/30 00:07:42;;;;;;;43.75;22.42;;;;;;;4.92;100.00;100065.72;5049218;28;20575;-63
2021/12/30 00:10:10;;;;;;;44.70;21.92;;;;;;;4.97;100.00;100074.19;5039087;28;20127;-63
2021/12/30 00:12:37;;;;;;;44.67;23.40;;;;;;;4.92;100.00;100068.34;5047347;28;20140;-61
2021/12/30 00:15:06;;;;;;;48.25;23.23;;;;;;;4.91;100.00;100068.38;5045854;28;20057;-63
2021/12/30 00:17:34;;;;;;;40.08;22.52;;;;;;;4.90;100.00;100070.16;5054697;28;20052;-63
2021/12/30 00:20:04;;;;;;;40.70;22.52;;;;;;;4.92;100.00;100065.72;5045919;28;20057;-63
2021/12/30 00:22:32;;;;;;;38.90;21.95;;;;;;;4.96;100.00;100063.84;5046336;28;20410;-63
2021/12/30 00:24:59;;;;;;;39.90;23.25;;;;;;;5.00;100.00;100062.78;5046450;28;20052;-63
2021/12/30 00:27:26;;;;;;;41.33;21.55;;;;;;;4.94;100.00;100070.88;5049146;28;20057;-63
2021/12/30 00:29:54;;;;;;;36.22;20.27;;;;;;;5.01;100.00;100069.69;5045450;28;20064;-63
2021/12/30 00:32:21;;;;;;;36.97;21.60;;;;;;;5.04;100.00;100062.56;5049250;28;20052;-63
2021/12/30 00:34:48;;;;;;;36.97;21.27;;;;;;;5.04;100.00;100061.69;5045437;28;20060;-63
2021/12/30 00:37:15;;;;;;;35.83;21.42;;;;;;;5.01;100.00;100052.28;5049042;28;20521;-63
2021/12/30 00:39:42;;;;;;;42.78;21.70;;;;;;;5.03;100.00;100058.25;5045746;28;20052;-62
2021/12/30 00:42:09;;;;;;;34.65;19.67;;;;;;;5.07;100.00;100058.97;5047793;28;20425;-63
2021/12/30 00:44:36;;;;;;;33.45;20.73;;;;;;;5.12;100.00;100059.59;5041404;28;20478;-63
2021/12/30 00:47:04;;;;;;;33.83;20.25;;;;;;;5.07;100.00;100061.56;5048798;28;20532;-63
2021/12/30 00:49:31;;;;;;;31.95;20.35;;;;;;;5.06;100.00;100057.28;5041239;28;20053;-63
2021/12/30 00:51:58;;;;;;;38.20;20.73;;;;;;;5.11;100.00;100060.53;5048825;28;20052;-63
2021/12/30 00:54:25;;;;;;;31.15;20.05;;;;;;;5.09;100.00;100064.97;5045354;28;20063;-63
2021/12/30 00:56:52;;;;;;;35.90;21.30;;;;;;;5.12;100.00;100072.66;5048110;28;20136;-63
2021/12/30 00:59:24;;;;;;;30.30;19.98;;;;;;;5.11;100.00;100078.78;5045039;28;20063;-63
2021/12/30 01:01:51;;;;;;;33.50;20.10;;;;;;;5.11;100.00;100075.34;5048497;28;20131;-63
2021/12/30 01:04:20;;;;;;;30.75;19.92;;;;;;;5.16;100.00;100081.19;5044222;28;20127;-65
2021/12/30 01:06:47;;;;;;;33.35;20.38;;;;;;;5.17;100.00;100075.03;5053013;28;20139;-63
2021/12/30 01:09:14;;;;;;;34.15;21.00;;;;;;;5.17;100.00;100072.44;5050017;28;20140;-63
2021/12/30 01:11:41;;;;;;;28.13;18.10;;;;;;;5.16;100.00;100076.81;5048361;28;20053;-63
2021/12/30 01:14:21;;;;;;;30.08;19.92;;;;;;;5.23;100.00;100074.78;5043940;28;20144;-63
2021/12/30 01:16:53;;;;;;;31.48;19.73;;;;;;;5.19;100.00;100079.28;5031407;28;20059;-63
2021/12/30 01:21:52;;;;;;;32.85;21.85;;;;;;;5.19;100.00;100086.28;5048107;28;20041;-62
2021/12/30 01:24:19;;;;;;;30.17;20.25;;;;;;;5.25;100.00;100089.44;5044663;28;20060;-63
2021/12/30 01:26:47;;;;;;;29.67;19.30;;;;;;;5.22;100.00;100093.94;5049148;28;20078;-63
2021/12/30 01:29:15;;;;;;;30.88;19.00;;;;;;;5.21;100.00;100094.88;5026819;28;20363;-63
2021/12/30 01:31:42;;;;;;;28.00;18.70;;;;;;;5.22;100.00;100089.59;5045268;28;20576;-63
2021/12/30 01:34:21;;;;;;;28.10;17.45;;;;;;;5.22;100.00;100076.56;5045029;28;20658;-63
2021/12/30 01:36:48;;;;;;;25.75;17.95;;;;;;;5.22;100.00;100081.78;5048184;28;20053;-63
2021/12/30 01:39:17;;;;;;;29.33;18.77;;;;;;;5.22;100.00;100081.78;5026945;28;20056;-63
2021/12/30 01:41:46;;;;;;;30.02;19.20;;;;;;;5.22;100.00;100078.28;5043785;28;20520;-62
2021/12/30 01:44:17;;;;;;;26.17;17.55;;;;;;;5.24;100.00;100077.31;5049083;22;20048;-58
2021/12/30 01:46:45;;;;;;;24.45;16.55;;;;;;;5.34;100.00;100075.97;5048958;28;20148;-55
2021/12/30 01:49:13;;;;;;;24.40;16.98;;;;;;;5.30;100.00;100073.56;5044571;28;20067;-60
2021/12/30 01:51:41;;;;;;;25.23;17.33;;;;;;;5.25;100.00;100086.00;5048311;28;20055;-59
2021/12/30 01:54:09;;;;;;;24.30;17.10;;;;;;;5.25;100.00;100096.44;5040169;28;20057;-59
2021/12/30 01:56:36;;;;;;;24.13;16.95;;;;;;;5.31;100.00;100090.91;5026718;28;20051;-58
2021/12/30 01:59:03;;;;;;;24.25;16.90;;;;;;;5.30;100.00;100079.63;5045086;28;20052;-60
2021/12/30 02:01:31;;;;;;;25.88;17.38;;;;;;;5.29;100.00;100080.56;5042468;28;20052;-60
2021/12/30 02:03:58;;;;;;;24.38;16.80;;;;;;;5.31;100.00;100064.81;5049276;28;20071;-60
2021/12/30 02:06:26;;;;;;;24.83;17.63;;;;;;;5.32;100.00;100080.44;5043756;28;20048;-60
2021/12/30 02:08:54;;;;;;;25.00;18.00;;;;;;;5.33;100.00;100082.13;5044491;28;20063;-60
2021/12/30 02:11:21;;;;;;;25.67;16.85;;;;;;;5.32;100.00;100082.19;5047506;28;20049;-60
2021/12/30 02:13:50;;;;;;;25.75;17.08;;;;;;;5.36;100.00;100078.53;5042742;28;20041;-59
2021/12/30 02:16:20;;;;;;;24.00;16.80;;;;;;;5.34;100.00;100068.13;5039958;28;20461;-60
2021/12/30 02:18:48;;;;;;;22.00;16.27;;;;;;;5.36;100.00;100082.88;5027623;28;20071;-60
2021/12/30 02:21:16;;;;;;;24.02;16.38;;;;;;;5.31;100.00;100085.69;5038679;28;20057;-60
2021/12/30 02:23:43;;;;;;;23.80;16.70;;;;;;;5.31;100.00;100093.53;5038542;28;20099;-59
2021/12/30 02:26:13;;;;;;;25.23;16.92;;;;;;;5.32;100.00;100074.38;5039707;28;20071;-60
2021/12/30 02:28:41;;;;;;;27.83;18.35;;;;;;;5.38;100.00;100074.06;5043301;28;20527;-59
2021/12/30 02:31:13;;;;;;;25.40;17.73;;;;;;;5.33;100.00;100071.66;5027758;28;20057;-60
2021/12/30 02:33:42;;;;;;;29.10;18.27;;;;;;;5.41;100.00;100078.31;5026633;28;20048;-60
2021/12/30 02:36:10;;;;;;;25.50;17.48;;;;;;;5.41;100.00;100076.53;5035473;28;20057;-60
2021/12/30 02:38:37;;;;;;;26.05;17.75;;;;;;;5.38;100.00;100068.84;5047283;28;20096;-60
2021/12/30 02:41:04;;;;;;;26.83;18.33;;;;;;;5.36;100.00;100072.44;5036698;28;20065;-59
2021/12/30 02:43:32;;;;;;;26.35;18.33;;;;;;;5.36;100.00;100070.69;5042353;28;20049;-57
2021/12/30 02:46:00;;;;;;;27.95;18.70;;;;;;;5.36;100.00;100073.31;5038344;28;20064;-59
2021/12/30 02:48:33;;;;;;;25.48;17.05;;;;;;;5.37;100.00;100079.38;5039415;28;20497;-60
2021/12/30 02:51:05;;;;;;;25.58;17.65;;;;;;;5.36;100.00;100081.13;5038424;28;20049;-59
2021/12/30 02:53:33;;;;;;;27.08;18.55;;;;;;;5.37;100.00;100080.22;5040950;28;20084;-58
2021/12/30 02:56:00;;;;;;;25.15;17.63;;;;;;;5.40;100.00;100084.44;5042565;28;20426;-60
2021/12/30 02:58:27;;;;;;;28.52;18.30;;;;;;;5.40;100.00;100087.88;5048896;28;20052;-60
2021/12/30 03:01:07;;;;;;;27.52;18.02;;;;;;;5.40;100.00;100103.53;5034721;28;20520;-61
2021/12/30 03:03:35;;;;;;;29.50;18.85;;;;;;;5.36;100.00;100099.41;5038120;28;20060;-60
2021/12/30 03:06:04;;;;;;;26.13;18.83;;;;;;;5.46;100.00;100102.44;5039342;28;20052;-61
2021/12/30 03:08:32;;;;;;;30.23;19.27;;;;;;;5.44;100.00;100099.03;5043709;28;20061;-59
2021/12/30 03:10:59;;;;;;;29.95;19.90;;;;;;;5.43;100.00;100100.81;5045877;28;20049;-59
2021/12/30 03:13:31;;;;;;;31.40;19.92;;;;;;;5.53;100.00;100103.81;5043190;28;20059;-55
2021/12/30 03:16:06;;;;;;;30.67;20.95;;;;;;;5.52;100.00;100099.53;5037333;28;20132;-56
2021/12/30 03:18:35;;;;;;;30.20;19.58;;;;;;;5.48;100.00;100104.03;5036576;28;20509;-57
2021/12/30 03:21:04;;;;;;;32.67;19.60;;;;;;;5.52;100.00;100104.75;5038001;28;20203;-59
2021/12/30 03:23:31;;;;;;;29.95;19.45;;;;;;;5.49;100.00;100110.97;5041510;28;20067;-58
2021/12/30 03:25:59;;;;;;;31.48;20.58;;;;;;;5.51;100.00;100116.13;5033290;28;20136;-58
2021/12/30 03:28:27;;;;;;;30.60;18.85;;;;;;;5.56;100.00;100116.75;5033365;28;20262;-59
2021/12/30 03:30:58;;;;;;;30.52;19.85;;;;;;;5.58;100.00;100114.91;5035169;28;20052;-57
2021/12/30 03:33:29;;;;;;;26.20;17.55;;;;;;;5.62;100.00;100128.66;5044474;28;20770;-56
2021/12/30 03:35:59;;;;;;;30.50;20.63;;;;;;;5.58;100.00;100123.59;5036118;28;20067;-58
2021/12/30 03:38:28;;;;;;;29.10;18.55;;;;;;;5.65;100.00;100121.53;5041115;28;20061;-59
2021/12/30 03:40:55;;;;;;;29.83;19.05;;;;;;;5.71;100.00;100129.09;5036705;28;20053;-58
2021/12/30 03:43:23;;;;;;;29.45;18.55;;;;;;;5.73;100.00;100123.81;5046248;28;20049;-59
2021/12/30 03:45:50;;;;;;;28.58;18.95;;;;;;;5.68;100.00;100124.03;5021647;28;20060;-60
2021/12/30 03:48:17;;;;;;;27.77;18.73;;;;;;;5.69;100.00;100117.88;5041160;28;20055;-60
2021/12/30 03:50:45;;;;;;;29.50;19.63;;;;;;;5.71;100.00;100121.25;5037280;28;20404;-58
2021/12/30 03:53:14;;;;;;;28.02;17.98;;;;;;;5.73;100.00;100132.50;5021738;28;20139;-58
2021/12/30 03:55:42;;;;;;;30.55;18.55;;;;;;;5.80;100.00;100128.66;5034002;28;20037;-60
2021/12/30 03:58:09;;;;;;;31.10;19.73;;;;;;;5.83;100.00;100136.34;5048920;28;20044;-59
2021/12/30 04:00:37;;;;;;;28.25;19.00;;;;;;;5.81;100.00;100135.59;5043506;28;20057;-60
2021/12/30 04:03:05;;;;;;;27.45;18.50;;;;;;;5.84;100.00;100134.59;5033478;28;20144;-59
2021/12/30 04:05:32;;;;;;;22.55;17.27;;;;;;;5.89;100.00;100152.66;5041039;28;20072;-59
2021/12/30 04:07:59;;;;;;;23.08;16.88;;;;;;;5.88;100.00;100164.88;5043352;28;20052;-60
2021/12/30 04:10:26;;;;;;;26.98;17.27;;;;;;;5.95;100.00;100171.53;5030292;28;20393;-59
2021/12/30 04:12:54;;;;;;;25.73;16.98;;;;;;;5.96;100.00;100173.22;5040954;28;20128;-59
2021/12/30 04:15:21;;;;;;;23.85;16.13;;;;;;;6.00;100.00;100185.25;5038350;28;20132;-59
2021/12/30 04:17:48;;;;;;;23.50;16.25;;;;;;;6.00;100.00;100200.91;5036963;28;20057;-60
2021/12/30 04:20:16;;;;;;;27.63;17.63;;;;;;;6.06;100.00;100200.63;5033790;28;20061;-59
2021/12/30 04:22:44;;;;;;;26.15;15.45;;;;;;;6.14;100.00;100213.31;5037914;28;20568;-57
2021/12/30 04:25:14;;;;;;;27.50;16.20;;;;;;;6.19;100.00;100215.72;5034933;28;20528;-59
2021/12/30 04:27:41;;;;;;;31.65;18.52;;;;;;;6.20;100.00;100217.41;5040160;28;20061;-60
2021/12/30 04:30:11;;;;;;;32.25;17.77;;;;;;;6.24;100.00;100208.50;5034181;28;20470;-60
2021/12/30 04:32:38;;;;;;;38.90;19.35;;;;;;;6.35;100.00;100216.69;5032653;28;20052;-60
2021/12/30 04:35:06;;;;;;;35.55;18.38;;;;;;;6.36;100.00;100225.38;5034452;28;20137;-60
2021/12/30 04:37:34;;;;;;;43.67;20.38;;;;;;;6.48;100.00;100223.00;5036080;28;20137;-60
2021/12/30 04:40:04;;;;;;;39.88;19.55;;;;;;;6.48;100.00;100219.53;5039441;28;20045;-60
2021/12/30 04:42:31;;;;;;;39.25;21.10;;;;;;;6.55;100.00;100223.56;5039625;28;20049;-60
2021/12/30 04:44:58;;;;;;;48.67;21.33;;;;;;;6.60;100.00;100217.19;5039714;28;20055;-61
2021/12/30 04:47:26;;;;;;;43.38;21.63;;;;;;;6.68;100.00;100227.28;5034954;28;20056;-61
2021/12/30 04:49:56;;;;;;;48.83;22.52;;;;;;;6.68;100.00;100232.50;5041406;28;20454;-60
2021/12/30 04:52:24;;;;;;;48.92;22.45;;;;;;;6.69;100.00;100233.34;5040018;28;20499;-60
2021/12/30 04:54:51;;;;;;;52.58;22.60;;;;;;;6.77;100.00;100237.28;5032104;28;20336;-60
2021/12/30 04:57:18;;;;;;;61.83;25.48;;;;;;;6.74;100.00;100244.44;5043409;28;20056;-60
2021/12/30 04:59:45;;;;;;;57.28;24.58;;;;;;;6.76;100.00;100237.38;5021117;28;20077;-59
2021/12/30 05:02:13;;;;;;;52.47;23.42;;;;;;;6.77;100.00;100245.13;5039476;28;20049;-60
2021/12/30 05:04:40;;;;;;;56.72;25.33;;;;;;;6.76;100.00;100248.69;5036074;28;20045;-60
2021/12/30 05:07:07;;;;;;;56.20;25.77;;;;;;;6.84;100.00;100241.31;5045092;28;20049;-60
2021/12/30 05:09:34;;;;;;;62.78;26.98;;;;;;;6.88;100.00;100239.38;5040027;28;20071;-60
2021/12/30 05:12:02;;;;;;;56.88;24.33;;;;;;;6.89;100.00;100232.34;5030444;28;20129;-58
2021/12/30 05:14:29;;;;;;;58.22;26.00;;;;;;;6.88;100.00;100234.13;5036725;28;20046;-56
2021/12/30 05:17:02;;;;;;;58.03;26.92;;;;;;;6.92;100.00;100238.28;5036575;28;20080;-57
2021/12/30 05:19:30;;;;;;;67.88;26.85;;;;;;;6.93;100.00;100244.38;5032883;28;20054;-60
2021/12/30 05:21:57;;;;;;;58.35;25.27;;;;;;;6.98;100.00;100248.47;5040017;28;20064;-59
2021/12/30 05:24:25;;;;;;;51.85;24.85;;;;;;;6.94;100.00;100251.31;5041235;28;20563;-59
2021/12/30 05:26:52;;;;;;;68.15;27.83;;;;;;;7.03;100.00;100258.72;5035253;28;20049;-58
2021/12/30 05:29:19;;;;;;;65.32;27.08;;;;;;;7.01;100.00;100250.91;5027894;28;20145;-58
2021/12/30 05:31:47;;;;;;;61.45;25.85;;;;;;;7.04;100.00;100253.38;5020184;28;20069;-60
2021/12/30 05:34:15;;;;;;;58.17;27.38;;;;;;;7.07;100.00;100248.00;5038512;28;20451;-61
2021/12/30 05:36:42;;;;;;;59.53;27.40;;;;;;;7.12;100.00;100257.41;5037166;28;20143;-59
2021/12/30 05:39:10;;;;;;;58.03;26.38;;;;;;;7.17;100.00;100265.88;5046758;28;20063;-60
2021/12/30 05:41:37;;;;;;;53.47;25.60;;;;;;;7.20;100.00;100263.06;5044621;28;20051;-61
2021/12/30 05:44:04;;;;;;;47.20;25.15;;;;;;;7.22;100.00;100271.72;5015818;28;20054;-60
2021/12/30 05:46:31;;;;;;;55.58;26.08;;;;;;;7.21;100.00;100283.97;5043949;28;20041;-61
2021/12/30 05:48:59;;;;;;;49.45;25.70;;;;;;;7.22;100.00;100290.88;5048607;28;20057;-60
2021/12/30 05:51:26;;;;;;;53.22;25.17;;;;;;;7.28;100.00;100289.72;5044438;28;20135;-60
2021/12/30 05:53:53;;;;;;;51.67;26.05;;;;;;;7.30;100.00;100290.50;5043279;28;20585;-58
2021/12/30 05:56:20;;;;;;;51.83;25.10;;;;;;;7.30;100.00;100291.34;5045117;28;20139;-60
2021/12/30 05:58:47;;;;;;;51.55;25.50;;;;;;;7.31;100.00;100293.03;5043615;28;20075;-60
2021/12/30 06:01:14;;;;;;;55.05;24.13;;;;;;;7.32;100.00;100293.88;5046917;28;20057;-59
2021/12/30 06:03:42;;;;;;;53.97;23.80;;;;;;;7.32;100.00;100297.34;5036568;28;20053;-60
2021/12/30 06:06:09;;;;;;;59.13;24.45;;;;;;;7.27;100.00;100309.81;5042198;28;20054;-60
2021/12/30 06:08:37;;;;;;;48.47;25.25;;;;;;;7.33;100.00;100301.66;5042941;28;20505;-60
2021/12/30 06:11:04;;;;;;;55.45;24.98;;;;;;;7.39;100.00;100305.75;5030671;28;20555;-59
2021/12/30 06:13:31;;;;;;;52.20;24.85;;;;;;;7.43;100.00;100312.53;5040387;28;20175;-59
2021/12/30 06:15:58;;;;;;;49.38;24.05;;;;;;;7.46;100.00;100306.28;5038694;28;20049;-60
2021/12/30 06:18:25;;;;;;;46.00;22.77;;;;;;;7.46;100.00;100304.50;5041111;28;20535;-60
2021/12/30 06:20:53;;;;;;;44.30;23.23;;;;;;;7.51;100.00;100309.50;5033869;28;20053;-58
2021/12/30 06:23:20;;;;;;;52.40;23.65;;;;;;;7.53;100.00;100316.38;5043774;28;21267;-59
2021/12/30 06:25:47;;;;;;;54.67;24.08;;;;;;;7.55;100.00;100322.34;5037741;28;20497;-58
2021/12/30 06:28:14;;;;;;;45.85;22.70;;;;;;;7.59;100.00;100312.56;5044564;28;20590;-58
2021/12/30 06:30:41;;;;;;;44.97;20.83;;;;;;;7.63;100.00;100318.50;5034415;28;20524;-60
2021/12/30 06:33:08;;;;;;;50.45;22.60;;;;;;;7.60;100.00;100322.97;5042224;28;20056;-60
2021/12/30 06:35:35;;;;;;;44.78;21.13;;;;;;;7.57;100.00;100319.69;5044959;28;20045;-60
2021/12/30 06:38:03;;;;;;;44.97;21.38;;;;;;;7.53;100.00;100318.97;5038307;28;20450;-58
2021/12/30 06:40:30;;;;;;;51.22;21.80;;;;;;;7.52;100.00;100332.13;5035054;28;20525;-58
2021/12/30 06:42:58;;;;;;;44.78;20.92;;;;;;;7.50;100.00;100326.16;5047214;28;20057;-58
2021/12/30 06:45:25;;;;;;;54.75;22.02;;;;;;;7.47;100.00;100327.13;5041618;28;20284;-60
2021/12/30 06:47:52;;;;;;;44.08;21.05;;;;;;;7.42;100.00;100339.63;5040031;28;20051;-60
2021/12/30 06:50:22;;;;;;;52.92;21.23;;;;;;;7.40;100.00;100335.41;5041664;28;20080;-58
2021/12/30 06:52:50;;;;;;;40.58;20.92;;;;;;;7.36;100.00;100337.31;5032417;28;20067;-60
2021/12/30 06:55:17;;;;;;;43.65;20.05;;;;;;;7.26;100.00;100331.69;5044561;28;20210;-58
2021/12/30 06:57:44;;;;;;;41.30;19.88;;;;;;;7.30;100.00;100342.88;5039997;28;20139;-60
2021/12/30 07:00:12;;;;;;;49.28;19.80;;;;;;;7.37;100.00;100352.09;5045100;28;20049;-60
2021/12/30 07:02:43;;;;;;;41.25;20.20;;;;;;;7.29;100.00;100357.72;5044542;28;20056;-58
2021/12/30 07:05:12;;;;;;;44.67;19.77;;;;;;;7.26;100.00;100355.25;5032279;28;20045;-59
2021/12/30 07:07:39;;;;;;;53.90;20.88;;;;;;;7.25;100.00;100358.81;5039455;28;20140;-60
2021/12/30 07:10:06;;;;;;;52.95;20.17;;;;;;;7.24;100.00;100364.94;5032677;28;20516;-59
2021/12/30 07:12:33;;;;;;;46.80;19.77;;;;;;;7.27;100.00;100361.34;5041926;28;20067;-60
2021/12/30 07:15:00;;;;;;;41.65;19.58;;;;;;;7.24;100.00;100362.31;5038181;28;20041;-58
2021/12/30 07:17:30;;;;;;;43.10;18.63;;;;;;;7.26;100.00;100364.88;5039224;28;20061;-61
2021/12/30 07:19:58;;;;;;;46.05;20.67;;;;;;;7.27;100.00;100377.06;5011099;28;20058;-61
2021/12/30 07:22:25;;;;;;;45.83;18.85;;;;;;;7.31;100.00;100389.06;5037956;28;20064;-61
2021/12/30 07:25:08;;;;;;;49.17;21.65;;;;;;;7.40;100.00;100395.63;5038551;28;20081;-60
2021/12/30 07:27:36;;;;;;;39.70;17.92;;;;;;;7.42;100.00;100399.84;5042526;28;20501;-60
2021/12/30 07:30:03;;;;;;;37.40;21.10;;;;;;;7.41;100.00;100406.03;5039525;28;20083;-60
2021/12/30 07:32:31;;;;;;;46.55;19.05;;;;;;;7.47;100.00;100395.22;5041525;28;20057;-60
2021/12/30 07:34:58;;;;;;;46.38;20.00;;;;;;;7.50;100.00;100399.47;5037339;28;20052;-61
2021/12/30 07:37:25;;;;;;;30.92;16.58;;;;;;;7.51;100.00;100403.78;5044187;28;20140;-59
2021/12/30 07:39:52;;;;;;;42.53;19.00;;;;;;;7.58;100.00;100403.41;5041992;28;20394;-58
2021/12/30 07:42:19;;;;;;;49.50;19.70;;;;;;;7.51;100.00;100409.03;5035874;28;20075;-59
2021/12/30 07:44:46;;;;;;;39.65;18.08;;;;;;;7.57;100.00;100406.97;5050148;22;20476;-61
2021/12/30 07:47:17;;;;;;;45.40;17.25;;;;;;;7.59;100.00;100407.72;5071778;28;20123;-60
2021/12/30 07:49:45;;;;;;;43.17;18.85;;;;;;;7.63;100.00;100411.03;5042371;28;20079;-60
2021/12/30 07:52:13;;;;;;;41.13;17.60;;;;;;;7.61;100.00;100411.13;5070304;28;20063;-61
2021/12/30 07:54:40;;;;;;;41.55;18.13;;;;;;;7.66;100.00;100402.19;5066397;28;20051;-59
2021/12/30 07:57:07;;;;;;;41.50;17.55;;;;;;;7.72;100.00;100400.09;5067046;28;20560;-61
2021/12/30 07:59:34;;;;;;;32.03;17.08;;;;;;;7.68;100.00;100395.09;5064768;28;20056;-57
2021/12/30 08:02:02;;;;;;;42.33;17.67;;;;;;;7.67;100.00;100406.50;5073193;28;20075;-59
2021/12/30 08:04:29;;;;;;;40.88;17.85;;;;;;;7.64;100.00;100394.41;5067827;28;20215;-62
2021/12/30 08:06:56;;;;;;;40.05;16.63;;;;;;;7.65;100.00;100395.25;5068437;28;20048;-58
2021/12/30 08:09:23;;;;;;;41.85;16.92;;;;;;;7.73;100.00;100408.81;5062379;28;20166;-61
2021/12/30 08:11:51;;;;;;;43.35;17.20;;;;;;;7.73;100.00;100401.78;5068207;28;20385;-62
2021/12/30 08:14:18;;;;;;;44.88;16.30;;;;;;;7.77;100.00;100402.50;5065609;28;20516;-58
2021/12/30 08:16:45;;;;;;;43.95;16.83;;;;;;;7.80;100.00;100397.09;5067654;28;20083;-61
2021/12/30 08:19:12;;;;;;;40.88;17.67;;;;;;;7.81;100.00;100401.41;5066130;28;20095;-62
2021/12/30 08:21:42;;;;;;;36.50;15.48;;;;;;;7.84;100.00;100402.09;5069216;28;20056;-61
2021/12/30 08:24:10;;;;;;;40.35;15.25;;;;;;;7.94;100.00;100397.22;5064759;28;20060;-60
2021/12/30 08:26:37;;;;;;;47.72;16.73;;;;;;;7.99;100.00;100387.34;5069528;28;20052;-61
2021/12/30 08:29:05;;;;;;;33.53;15.90;;;;;;;7.98;100.00;100395.31;5066996;28;20416;-62
2021/12/30 08:31:36;;;;;;;42.05;16.65;;;;;;;7.99;100.00;100395.22;5065929;28;20052;-61
2021/12/30 08:34:04;;;;;;;31.67;14.48;;;;;;;8.05;100.00;100413.25;5069875;28;20130;-59
2021/12/30 08:36:32;;;;;;;43.53;16.15;;;;;;;8.09;100.00;100412.16;5071506;28;20512;-60
2021/12/30 08:38:59;;;;;;;41.10;16.40;;;;;;;8.11;100.00;100410.31;5067328;28;20092;-56
2021/12/30 08:41:27;;;;;;;38.85;16.80;;;;;;;8.10;100.00;100418.25;5064929;28;20071;-61
2021/12/30 08:43:54;;;;;;;38.53;14.85;;;;;;;8.15;100.00;100418.00;5068119;28;20053;-58
2021/12/30 08:46:21;;;;;;;33.80;16.00;;;;;;;8.08;100.00;100418.34;5044708;28;20047;-58
2021/12/30 08:48:48;;;;;;;37.60;16.42;;;;;;;8.09;100.00;100424.41;5066496;28;20504;-57
2021/12/30 08:51:15;;;;;;;41.40;15.77;;;;;;;8.14;100.00;100411.91;5067060;28;20061;-59
2021/12/30 08:53:42;;;;;;;34.00;16.05;;;;;;;8.14;100.00;100406.66;5067519;28;20064;-61
2021/12/30 08:56:12;;;;;;;44.30;16.95;;;;;;;8.19;100.00;100412.53;5066762;28;20409;-60
2021/12/30 08:58:40;;;;;;;45.40;17.65;;;;;;;8.25;100.00;100419.25;5046049;28;20056;-57
2021/12/30 09:01:07;;;;;;;40.05;16.92;;;;;;;8.27;100.00;100420.00;5064375;28;20052;-59
2021/12/30 09:03:35;;;;;;;39.38;16.50;;;;;;;8.26;100.00;100427.00;5069925;28;20061;-61
2021/12/30 09:06:02;;;;;;;38.55;16.45;;;;;;;8.26;100.00;100434.03;5067221;28;20067;-60
2021/12/30 09:08:29;;;;;;;44.05;16.70;;;;;;;8.31;100.00;100435.50;5064889;28;20300;-58
2021/12/30 09:10:56;;;;;;;36.75;16.80;;;;;;;8.30;100.00;100451.31;5067398;28;20110;-60
2021/12/30 09:13:23;;;;;;;36.78;18.40;;;;;;;8.22;100.00;100443.00;5075078;28;20148;-61
2021/12/30 09:15:51;;;;;;;44.50;18.73;;;;;;;8.28;100.00;100445.28;5071422;28;20128;-60
2021/12/30 09:18:18;;;;;;;43.55;16.35;;;;;;;8.37;100.00;100447.47;5070278;28;20397;-58
2021/12/30 09:20:45;;;;;;;34.05;15.85;;;;;;;8.38;100.00;100438.69;5070916;28;20139;-59
2021/12/30 09:23:14;;;;;;;29.73;15.20;;;;;;;8.44;100.00;100432.25;5071596;28;20053;-60
2021/12/30 09:25:42;;;;;;;38.92;16.77;;;;;;;8.44;100.00;100448.00;5066496;28;20056;-58
2021/12/30 09:28:12;;;;;;;44.20;16.10;;;;;;;8.45;100.00;100449.69;5070875;28;20547;-57
2021/12/30 09:30:40;;;;;;;38.70;15.15;;;;;;;8.53;100.00;100453.59;5070196;28;20143;-58
2021/12/30 09:33:08;;;;;;;40.30;15.20;;;;;;;8.60;100.00;100454.97;5072861;28;20143;-61
2021/12/30 09:35:35;;;;;;;37.92;13.90;;;;;;;8.60;100.00;100459.34;5068903;28;20082;-58
2021/12/30 09:38:03;;;;;;;30.90;14.80;;;;;;;8.58;100.00;100454.19;5072239;28;20072;-61
2021/12/30 09:40:30;;;;;;;37.03;15.45;;;;;;;8.51;100.00;100457.22;5069398;28;20056;-60
2021/12/30 09:43:02;;;;;;;33.97;15.95;;;;;;;8.53;100.00;100455.38;5069633;28;20135;-59
2021/12/30 09:45:33;;;;;;;32.78;14.57;;;;;;;8.55;100.00;100464.00;5068348;28;20045;-58
2021/12/30 09:48:04;;;;;;;46.30;16.55;;;;;;;8.56;100.00;100461.31;5071777;28;20060;-56
2021/12/30 09:50:35;;;;;;;36.80;15.68;;;;;;;8.56;100.00;100461.31;5069222;28;20660;-59
2021/12/30 09:53:02;;;;;;;33.58;14.85;;;;;;;8.55;100.00;100456.13;5053381;28;20139;-60
2021/12/30 09:55:30;;;;;;;39.33;17.33;;;;;;;8.50;100.00;100464.25;5068983;28;20049;-59
2021/12/30 09:57:59;;;;;;;29.20;14.90;;;;;;;8.51;100.00;100458.09;5071561;28;20053;-59
2021/12/30 10:00:27;;;;;;;41.67;15.95;;;;;;;8.52;100.00;100453.69;5050439;28;20436;-60
2021/12/30 10:02:54;;;;;;;35.28;14.57;;;;;;;8.53;100.00;100458.84;5070996;28;20056;-65
2021/12/30 10:05:26;;;;;;;35.30;15.50;;;;;;;8.56;100.00;100448.19;5069060;28;20516;-62
2021/12/30 10:08:12;;;;;;;33.42;15.63;;;;;;;8.58;100.00;100443.69;5071795;28;20079;-55
2021/12/30 10:10:40;;;;;;;31.55;14.25;;;;;;;8.60;100.00;100443.59;5064226;28;20106;-59
2021/12/30 10:13:29;;;;;;;27.13;12.93;;;;;;;8.61;100.00;100437.47;5076184;28;20060;-61
2021/12/30 10:16:05;;;;;;;38.10;16.92;;;;;;;8.61;100.00;100451.41;5070054;28;20432;-60
2021/12/30 10:18:53;;;;;;;32.50;13.32;;;;;;;8.62;100.00;100431.28;5055486;28;20052;-60
2021/12/30 10:21:24;;;;;;;26.38;12.52;;;;;;;8.65;100.00;100435.53;5065621;28;20052;-58
2021/12/30 10:23:56;;;;;;;35.38;13.32;;;;;;;8.70;100.00;100434.34;5070271;28;20059;-60
2021/12/30 10:26:24;;;;;;;31.27;13.05;;;;;;;8.68;100.00;100446.69;5070501;28;20123;-59
2021/12/30 10:28:55;;;;;;;23.92;12.73;;;;;;;8.73;100.00;100438.56;5068726;28;20052;-61
2021/12/30 10:31:29;;;;;;;25.92;11.98;;;;;;;8.67;100.00;100438.91;5066778;28;20056;-61
2021/12/30 10:34:04;;;;;;;30.83;13.05;;;;;;;8.66;100.00;100439.84;5081111;28;20493;-59
2021/12/30 10:36:36;;;;;;;30.13;13.77;;;;;;;8.69;100.00;100430.03;5069431;28;20063;-57
2021/12/30 10:39:22;;;;;;;26.98;12.98;;;;;;;8.79;100.00;100428.59;5062687;28;20044;-59
2021/12/30 10:41:50;;;;;;;;;;;;;;;8.73;100.00;100428.91;5069931;28;20064;-57
2021/12/30 10:44:18;;;;;;;29.45;12.80;;;;;;;8.75;100.00;100416.56;5067567;28;19971;-59
2021/12/30 10:46:46;;;;;;;33.90;12.95;;;;;;;8.77;100.00;100419.09;5068075;28;20413;-59
2021/12/30 10:49:26;;;;;;;29.27;13.40;;;;;;;8.75;100.00;100428.84;5068318;28;20404;-61
2021/12/30 10:51:57;;;;;;;29.52;13.90;;;;;;;8.78;100.00;100436.53;5071495;28;20135;-59
2021/12/30 10:54:26;;;;;;;28.35;12.38;;;;;;;8.68;100.00;100440.59;5067508;28;20087;-62
2021/12/30 10:57:07;;;;;;;31.13;13.23;;;;;;;8.71;100.00;100425.53;5064171;28;20075;-62
2021/12/30 10:59:39;;;;;;;32.42;13.15;;;;;;;8.75;100.00;100431.47;5067099;28;20052;-61
2021/12/30 11:02:15;;;;;;;28.15;11.48;;;;;;;8.72;100.00;100431.63;5074166;28;20232;-59
2021/12/30 11:04:56;;;;;;;27.42;11.48;;;;;;;8.74;100.00;100427.16;5063518;28;20053;-62
2021/12/30 11:07:26;;;;;;;31.98;12.90;;;;;;;8.67;100.00;100428.41;5071092;28;20076;-60
2021/12/30 11:09:58;;;;;;;27.15;12.63;;;;;;;8.59;100.00;100437.53;5065735;28;20517;-62
2021/12/30 11:12:41;;;;;;;28.58;12.32;;;;;;;8.65;100.00;100430.28;5079759;28;20102;-62
2021/12/30 11:15:19;;;;;;;24.65;12.07;;;;;;;8.61;100.00;100427.81;5065876;28;20067;-59
2021/12/30 11:17:47;;;;;;;25.55;12.88;;;;;;;8.68;100.00;100425.69;5070574;28;20048;-61